createdAt,value
2022-08-07T00:02:37.481Z,6.75
2022-08-07T00:04:59.333Z,8.50
2022-08-07T00:07:27.473Z,6.68
2022-08-07T00:10:25.460Z,5.97
2022-08-07T00:12:59.685Z,5.22
2022-08-07T00:15:37.968Z,6.57
2022-08-07T00:18:19.269Z,5.72
2022-08-07T00:20:49.634Z,5.80
2022-08-07T00:23:17.413Z,4.47
2022-08-07T00:25:45.884Z,6.10
2022-08-07T00:28:22.199Z,5.80
2022-08-07T00:30:49.469Z,6.63
2022-08-07T00:33:17.093Z,6.20
2022-08-07T00:35:49.434Z,6.18
2022-08-07T00:38:16.887Z,6.30
2022-08-07T00:41:00.069Z,6.07
2022-08-07T00:44:00.388Z,8.40
2022-08-07T00:46:14.743Z,6.05
2022-08-07T00:48:42.309Z,5.82
2022-08-07T00:51:10.652Z,5.25
2022-08-07T00:53:39.361Z,5.47
2022-08-07T00:56:18.363Z,5.30
2022-08-07T00:58:47.176Z,5.45
2022-08-07T01:01:18.263Z,4.97
2022-08-07T01:03:57.020Z,5.40
2022-08-07T01:06:29.524Z,5.50
2022-08-07T01:09:00.901Z,5.60
2022-08-07T01:12:09.778Z,5.10
2022-08-07T01:14:28.256Z,5.25
2022-08-07T01:16:57.361Z,5.07
2022-08-07T01:19:27.566Z,5.50
2022-08-07T01:22:00.815Z,5.40
2022-08-07T01:24:32.183Z,6.10
2022-08-07T01:27:01.207Z,4.97
2022-08-07T01:29:31.238Z,4.40
2022-08-07T01:31:59.549Z,6.45
2022-08-07T01:34:31.198Z,6.50
2022-08-07T01:37:00.408Z,7.38
2022-08-07T01:39:39.678Z,9.23
2022-08-07T01:42:38.556Z,7.53
2022-08-07T01:45:09.883Z,6.82
2022-08-07T01:48:17.857Z,7.05
2022-08-07T01:50:32.748Z,6.72
2022-08-07T01:53:02.217Z,6.68
2022-08-07T01:55:47.103Z,5.60
2022-08-07T01:58:29.085Z,6.20
2022-08-07T02:01:25.448Z,6.18
2022-08-07T02:04:08.914Z,7.03
2022-08-07T02:06:39.859Z,6.05
2022-08-07T02:09:12.030Z,5.78
2022-08-07T02:12:17.591Z,6.40
2022-08-07T02:14:53.037Z,6.70
2022-08-07T02:17:27.523Z,5.22
2022-08-07T02:20:09.922Z,4.60
2022-08-07T02:22:45.415Z,7.30
2022-08-07T02:25:18.069Z,7.20
2022-08-07T02:27:51.188Z,8.18
2022-08-07T02:30:20.319Z,7.53
2022-08-07T02:33:04.017Z,6.82
2022-08-07T02:36:27.031Z,5.50
2022-08-07T02:38:32.855Z,6.00
2022-08-07T02:41:04.052Z,6.82
2022-08-07T02:43:34.860Z,4.97
2022-08-07T02:46:05.061Z,4.90
2022-08-07T02:48:32.473Z,7.75
2022-08-07T02:51:29.090Z,6.30
2022-08-07T02:54:01.696Z,4.20
2022-08-07T02:56:33.109Z,4.47
2022-08-07T02:59:05.875Z,4.53
2022-08-07T03:01:36.024Z,4.40
2022-08-07T03:04:13.014Z,4.30
2022-08-07T03:06:48.303Z,4.50
2022-08-07T03:09:43.294Z,4.50
2022-08-07T03:12:07.974Z,5.80
2022-08-07T03:14:40.775Z,5.30
2022-08-07T03:17:16.581Z,5.40
2022-08-07T03:19:44.090Z,4.70
2022-08-07T03:22:29.718Z,5.85
2022-08-07T03:25:00.300Z,5.07
2022-08-07T03:27:30.564Z,5.43
2022-08-07T03:30:10.818Z,5.15
2022-08-07T03:32:58.294Z,5.55
2022-08-07T03:35:43.691Z,4.35
2022-08-07T03:38:21.356Z,5.07
2022-08-07T03:40:57.719Z,5.43
2022-08-07T03:43:26.672Z,5.63
2022-08-07T03:46:00.026Z,5.32
2022-08-07T03:48:31.933Z,5.15
2022-08-07T03:51:02.257Z,5.20
2022-08-07T03:54:01.975Z,4.90
2022-08-07T03:56:33.001Z,4.32
2022-08-07T03:59:09.478Z,4.53
2022-08-07T04:01:45.733Z,5.32
2022-08-07T04:04:17.181Z,5.10
2022-08-07T04:06:45.246Z,5.20
2022-08-07T04:09:15.995Z,6.15
2022-08-07T04:12:24.346Z,5.32
2022-08-07T04:14:38.531Z,5.28
2022-08-07T04:17:20.243Z,5.20
2022-08-07T04:19:51.859Z,6.68
2022-08-07T04:22:27.583Z,4.88
2022-08-07T04:25:01.684Z,4.50
2022-08-07T04:27:35.951Z,4.33
2022-08-07T04:30:21.685Z,4.38
2022-08-07T04:33:00.680Z,4.25
2022-08-07T04:35:28.692Z,4.40
2022-08-07T04:38:09.272Z,4.43
2022-08-07T04:40:43.913Z,4.10
2022-08-07T04:43:53.427Z,4.70
2022-08-07T04:47:04.787Z,4.28
2022-08-07T04:50:12.720Z,3.90
2022-08-07T04:52:51.800Z,4.13
2022-08-07T04:58:10.890Z,4.20
2022-08-07T04:59:17.264Z,4.50
2022-08-07T05:02:20.692Z,4.20
2022-08-07T05:05:00.949Z,3.80
2022-08-07T05:08:03.786Z,3.15
2022-08-07T05:10:36.755Z,3.77
2022-08-07T05:14:55.525Z,4.40
2022-08-07T05:16:07.830Z,3.53
2022-08-07T05:18:44.142Z,3.38
2022-08-07T05:21:14.851Z,3.47
2022-08-07T05:23:50.154Z,3.83
2022-08-07T05:26:24.165Z,3.88
2022-08-07T05:28:56.378Z,3.25
2022-08-07T05:31:34.706Z,2.88
2022-08-07T05:34:05.639Z,3.10
2022-08-07T05:36:42.081Z,3.42
2022-08-07T05:40:06.793Z,3.15
2022-08-07T05:42:01.468Z,2.85
2022-08-07T05:44:37.744Z,3.13
2022-08-07T05:47:38.587Z,3.28
2022-08-07T05:50:04.210Z,4.13
2022-08-07T05:52:33.167Z,3.20
2022-08-07T05:55:10.149Z,2.80
2022-08-07T05:57:42.263Z,3.10
2022-08-07T06:00:16.518Z,3.40
2022-08-07T06:02:50.448Z,2.92
2022-08-07T06:05:25.800Z,2.30
2022-08-07T06:08:14.572Z,3.08
2022-08-07T06:10:47.040Z,2.70
2022-08-07T06:14:10.349Z,2.58
2022-08-07T06:16:08.740Z,2.30
2022-08-07T06:18:39.067Z,2.15
2022-08-07T06:22:14.805Z,2.13
2022-08-07T06:24:52.528Z,2.40
2022-08-07T06:26:43.392Z,2.78
2022-08-07T06:29:10.378Z,2.13
2022-08-07T06:31:49.548Z,2.00
2022-08-07T06:34:19.508Z,2.33
2022-08-07T06:36:48.067Z,2.08
2022-08-07T06:40:16.464Z,1.55
2022-08-07T06:42:19.192Z,1.75
2022-08-07T06:44:51.291Z,1.80
2022-08-07T06:47:19.622Z,1.65
2022-08-07T06:49:51.127Z,2.50
2022-08-07T06:52:31.429Z,1.95
2022-08-07T06:58:10.281Z,2.70
2022-08-07T07:00:42.269Z,1.73
2022-08-07T07:03:14.316Z,2.28
2022-08-07T07:06:05.062Z,2.78
2022-08-07T07:08:33.175Z,3.15
2022-08-07T07:11:13.061Z,1.52
2022-08-07T07:13:58.044Z,0.82
2022-08-07T07:16:45.330Z,1.35
2022-08-07T07:19:57.428Z,1.30
2022-08-07T07:22:34.199Z,1.17
2022-08-07T07:25:14.274Z,1.20
2022-08-07T07:29:38.609Z,1.42
2022-08-07T07:31:44.605Z,1.35
2022-08-07T07:34:30.621Z,1.17
2022-08-07T07:37:14.273Z,1.30
2022-08-07T07:39:55.395Z,1.50
2022-08-07T07:42:32.571Z,0.90
2022-08-07T07:45:04.161Z,1.35
2022-08-07T07:47:52.306Z,1.40
2022-08-07T07:50:34.816Z,1.55
2022-08-07T07:53:20.143Z,1.10
2022-08-07T07:55:57.696Z,1.30
2022-08-07T07:58:40.368Z,1.38
2022-08-07T08:02:02.709Z,1.80
2022-08-07T08:04:11.256Z,1.35
2022-08-07T08:06:50.999Z,1.20
2022-08-07T08:09:29.415Z,1.33
2022-08-07T08:12:03.816Z,1.10
2022-08-07T08:14:37.019Z,1.17
2022-08-07T08:17:32.400Z,1.42
2022-08-07T08:20:17.569Z,1.40
2022-08-07T08:23:12.106Z,1.50
2022-08-07T08:26:06.867Z,1.40
2022-08-07T08:28:43.433Z,0.98
2022-08-07T08:31:58.573Z,1.00
2022-08-07T08:34:12.437Z,0.90
2022-08-07T08:36:57.714Z,0.90
2022-08-07T08:39:39.284Z,1.20
2022-08-07T08:42:36.877Z,0.80
2022-08-07T08:45:41.975Z,1.00
2022-08-07T08:48:57.348Z,1.10
2022-08-07T08:52:12.993Z,1.08
2022-08-07T08:54:47.580Z,0.90
2022-08-07T08:57:35.272Z,3.75
2022-08-07T09:00:09.404Z,1.25
2022-08-07T09:02:39.356Z,1.60
2022-08-07T09:05:52.929Z,1.90
2022-08-07T09:08:49.375Z,1.50
2022-08-07T09:11:43.527Z,1.48
2022-08-07T09:14:50.944Z,1.85
2022-08-07T09:17:59.348Z,2.38
2022-08-07T09:21:03.869Z,0.77
2022-08-07T09:24:32.305Z,0.55
2022-08-07T09:27:28.940Z,0.70
2022-08-07T09:30:14.758Z,0.73
2022-08-07T09:33:52.652Z,0.85
2022-08-07T09:36:35.682Z,1.02
2022-08-07T09:39:55.328Z,0.93
2022-08-07T09:42:46.682Z,1.25
2022-08-07T09:47:26.145Z,0.88
2022-08-07T09:50:01.603Z,0.98
2022-08-07T09:52:34.141Z,1.52
2022-08-07T09:56:02.862Z,1.17
2022-08-07T09:58:52.744Z,0.70
2022-08-07T10:01:54.715Z,1.88
2022-08-07T10:05:14.181Z,1.13
2022-08-07T10:08:18.292Z,1.20
2022-08-07T10:11:58.963Z,1.13
2022-08-07T10:14:11.271Z,1.05
2022-08-07T10:17:28.960Z,1.00
2022-08-07T10:20:54.683Z,1.05
2022-08-07T10:24:18.703Z,1.33
2022-08-07T10:27:30.249Z,0.95
2022-08-07T10:30:25.054Z,0.88
2022-08-07T10:34:05.532Z,1.27
2022-08-07T10:38:00.716Z,1.65
2022-08-07T10:41:09.828Z,0.90
2022-08-07T10:44:07.372Z,0.80
2022-08-07T10:47:15.866Z,0.95
2022-08-07T10:50:29.238Z,1.50
2022-08-07T10:53:08.361Z,1.40
2022-08-07T10:55:53.540Z,0.77
2022-08-07T10:58:59.725Z,0.77
2022-08-07T11:02:12.571Z,1.40
2022-08-07T11:05:49.178Z,1.00
2022-08-07T11:08:52.809Z,0.90
2022-08-07T11:11:37.706Z,1.10
2022-08-07T11:14:43.773Z,1.20
2022-08-07T11:17:45.821Z,0.98
2022-08-07T11:20:49.150Z,1.60
2022-08-07T11:23:57.318Z,1.40
2022-08-07T11:27:13.377Z,5.47
2022-08-07T11:30:18.024Z,1.48
2022-08-07T11:33:02.390Z,0.90
2022-08-07T11:35:59.485Z,1.50
2022-08-07T11:38:50.353Z,1.00
2022-08-07T11:42:02.327Z,1.20
2022-08-07T11:44:52.449Z,0.90
2022-08-07T11:51:44.550Z,2.28
2022-08-07T11:54:36.027Z,1.70
2022-08-07T11:57:59.478Z,2.55
2022-08-07T12:00:31.375Z,1.05
2022-08-07T12:03:42.099Z,1.15
2022-08-07T12:06:37.056Z,1.23
2022-08-07T12:09:38.649Z,0.70
2022-08-07T12:12:31.648Z,1.10
2022-08-07T12:18:07.967Z,1.00
2022-08-07T12:21:03.138Z,4.95
2022-08-07T12:24:07.575Z,1.00
2022-08-07T12:26:54.814Z,1.60
2022-08-07T12:29:42.757Z,1.10
2022-08-07T12:32:23.394Z,1.00
2022-08-07T12:34:56.238Z,1.00
2022-08-07T12:38:11.721Z,5.22
2022-08-07T12:40:46.443Z,1.63
2022-08-07T12:44:01.936Z,2.28
2022-08-07T12:46:32.571Z,0.85
2022-08-07T12:49:40.171Z,1.00
2022-08-07T12:52:36.423Z,2.33
2022-08-07T12:55:41.378Z,0.77
2022-08-07T12:58:35.522Z,1.05
2022-08-07T13:01:32.503Z,1.27
2022-08-07T13:04:49.208Z,0.90
2022-08-07T13:08:22.377Z,0.90
2022-08-07T13:12:02.005Z,0.95
2022-08-07T13:14:50.870Z,1.70
2022-08-07T13:17:39.843Z,1.60
2022-08-07T13:20:27.842Z,0.73
2022-08-07T13:24:00.634Z,1.40
2022-08-07T13:26:21.512Z,1.08
2022-08-07T13:29:15.477Z,0.82
2022-08-07T13:32:06.406Z,0.80
2022-08-07T13:35:24.065Z,1.00
2022-08-07T13:38:36.518Z,1.38
2022-08-07T13:41:21.045Z,1.08
2022-08-07T13:43:52.559Z,1.60
2022-08-07T13:46:32.906Z,1.27
2022-08-07T13:49:08.764Z,1.15
2022-08-07T13:52:22.745Z,1.40
2022-08-07T13:54:49.251Z,0.93
2022-08-07T13:57:23.975Z,1.02
2022-08-07T13:59:55.759Z,0.90
2022-08-07T14:02:39.846Z,1.30
2022-08-07T14:05:23.536Z,1.33
2022-08-07T14:10:41.909Z,1.42
2022-08-07T14:13:18.515Z,0.98
2022-08-07T14:16:06.080Z,1.17
2022-08-07T14:18:57.032Z,0.93
2022-08-07T14:22:03.260Z,1.50
2022-08-07T14:24:36.312Z,1.10
2022-08-07T14:28:09.419Z,1.23
2022-08-07T14:30:11.816Z,1.20
2022-08-07T14:32:58.428Z,1.00
2022-08-07T14:38:30.535Z,1.17
2022-08-07T14:41:34.094Z,0.90
2022-08-07T14:44:21.983Z,1.23
2022-08-07T14:47:08.728Z,1.30
2022-08-07T14:49:57.319Z,1.58
2022-08-07T14:52:30.885Z,1.50
2022-08-07T14:55:00.490Z,1.33
2022-08-07T14:57:58.670Z,0.95
2022-08-07T15:03:22.242Z,1.35
2022-08-07T15:06:09.880Z,1.20
2022-08-07T15:08:58.457Z,1.92
2022-08-07T15:11:52.833Z,1.25
2022-08-07T15:14:25.514Z,1.25
2022-08-07T15:17:04.785Z,2.47
2022-08-07T15:20:33.292Z,1.70
2022-08-07T15:22:53.984Z,1.60
2022-08-07T15:25:36.940Z,1.20
2022-08-07T15:28:36.173Z,1.80
2022-08-07T15:31:05.656Z,1.48
2022-08-07T15:33:38.490Z,1.50
2022-08-07T15:36:11.689Z,1.45
2022-08-07T15:38:58.543Z,1.15
2022-08-07T15:42:45.977Z,1.20
2022-08-07T15:47:16.789Z,1.27
2022-08-07T15:50:05.090Z,1.10
2022-08-07T15:52:38.038Z,1.25
2022-08-07T15:55:11.670Z,2.08
2022-08-07T15:57:49.191Z,1.45
2022-08-07T16:00:33.587Z,1.50
2022-08-07T16:03:47.035Z,1.98
2022-08-07T16:06:14.055Z,1.48
2022-08-07T16:08:47.754Z,1.70
2022-08-07T16:12:00.761Z,1.88
2022-08-07T16:14:59.238Z,1.90
2022-08-07T16:18:04.561Z,1.35
2022-08-07T16:22:01.640Z,1.90
2022-08-07T16:24:09.247Z,1.90
2022-08-07T16:28:09.360Z,1.23
2022-08-07T16:31:50.691Z,1.52
2022-08-07T16:34:38.377Z,1.83
2022-08-07T16:38:04.938Z,1.67
2022-08-07T16:41:06.256Z,1.60
2022-08-07T16:44:06.218Z,1.60
2022-08-07T16:48:06.074Z,2.20
2022-08-07T16:51:57.641Z,1.48
2022-08-07T16:54:40.403Z,2.35
2022-08-07T16:58:01.863Z,1.58
2022-08-07T17:00:50.037Z,2.35
2022-08-07T17:03:58.528Z,2.75
2022-08-07T17:06:42.562Z,3.35
2022-08-07T17:10:06.421Z,1.48
2022-08-07T17:12:46.427Z,3.38
2022-08-07T17:15:44.693Z,2.53
2022-08-07T17:18:46.120Z,2.00
2022-08-07T17:21:23.689Z,1.85
2022-08-07T17:24:23.685Z,5.07
2022-08-07T17:27:19.784Z,3.03
2022-08-07T17:30:20.000Z,2.70
2022-08-07T17:34:10.082Z,1.80
2022-08-07T17:36:32.596Z,3.00
2022-08-07T17:39:58.374Z,2.80
2022-08-07T17:42:59.214Z,2.70
2022-08-07T17:45:39.718Z,2.80
2022-08-07T17:48:31.253Z,2.22
2022-08-07T17:51:21.360Z,2.60
2022-08-07T17:54:29.887Z,1.95
2022-08-07T17:57:58.981Z,4.38
2022-08-07T18:00:34.301Z,2.30
2022-08-07T18:03:20.908Z,2.30
2022-08-07T18:06:09.260Z,1.80
2022-08-07T18:09:01.918Z,2.58
2022-08-07T18:12:20.142Z,2.10
2022-08-07T18:15:17.058Z,2.30
2022-08-07T18:18:45.627Z,4.05
2022-08-07T18:21:53.529Z,2.17
2022-08-07T18:24:51.143Z,2.08
2022-08-07T18:28:04.632Z,1.98
2022-08-07T18:30:44.806Z,2.05
2022-08-07T18:34:37.854Z,1.90
2022-08-07T18:38:57.603Z,2.17
2022-08-07T18:40:56.180Z,1.90
2022-08-07T18:43:57.244Z,2.20
2022-08-07T18:47:00.040Z,2.45
2022-08-07T18:50:40.786Z,1.80
2022-08-07T18:53:46.802Z,1.65
2022-08-07T18:57:30.331Z,3.50
2022-08-07T19:00:33.401Z,2.10
2022-08-07T19:03:18.434Z,1.92
2022-08-07T19:06:04.029Z,2.10
2022-08-07T19:08:46.328Z,3.25
2022-08-07T19:11:37.771Z,4.05
2022-08-07T19:26:29.037Z,5.88
2022-08-07T19:30:57.029Z,6.88
2022-08-07T19:32:10.704Z,5.97
2022-08-07T19:34:55.140Z,13.55
2022-08-07T19:37:25.350Z,10.27
2022-08-07T19:40:16.838Z,7.00
2022-08-07T19:42:59.324Z,7.35
2022-08-07T19:46:05.930Z,8.38
2022-08-07T19:48:18.846Z,7.72
2022-08-07T19:50:55.288Z,6.68
2022-08-07T19:54:32.589Z,6.68
2022-08-07T19:58:00.224Z,6.57
2022-08-07T19:59:11.947Z,3.28
2022-08-07T20:01:57.618Z,3.55
2022-08-07T20:04:37.657Z,2.83
2022-08-07T20:07:10.098Z,3.28
2022-08-07T20:10:35.654Z,5.03
2022-08-07T20:12:39.332Z,7.35
2022-08-07T20:15:22.138Z,8.65
2022-08-07T20:18:01.505Z,9.77
2022-08-07T20:20:33.556Z,9.80
2022-08-07T20:23:40.644Z,8.60
2022-08-07T20:26:10.136Z,8.27
2022-08-07T20:28:41.364Z,4.10
2022-08-07T20:31:21.961Z,3.80
2022-08-07T20:33:58.728Z,6.00
2022-08-07T20:36:30.804Z,6.40
2022-08-07T20:39:00.275Z,5.78
2022-08-07T20:41:34.115Z,4.63
2022-08-07T20:44:10.392Z,4.75
2022-08-07T20:46:44.600Z,4.60
2022-08-07T20:49:59.540Z,4.35
2022-08-07T20:52:16.614Z,5.82
2022-08-07T20:54:53.186Z,8.07
2022-08-07T20:57:28.168Z,5.70
2022-08-07T21:00:09.205Z,5.43
2022-08-07T21:05:54.937Z,4.88
2022-08-07T21:08:38.225Z,3.92
2022-08-07T21:11:16.256Z,5.57
2022-08-07T21:14:29.536Z,4.57
2022-08-07T21:18:01.294Z,5.57
2022-08-07T21:20:04.405Z,4.07
2022-08-07T21:22:45.158Z,4.40
2022-08-07T21:25:39.038Z,3.10
2022-08-07T21:28:16.772Z,2.72
2022-08-07T21:31:49.916Z,3.20
2022-08-07T21:34:48.677Z,3.92
2022-08-07T21:38:30.318Z,4.90
2022-08-07T21:41:14.712Z,3.20
2022-08-07T21:44:25.365Z,3.08
2022-08-07T21:47:12.254Z,2.88
2022-08-07T21:50:05.190Z,2.60
2022-08-07T21:52:54.904Z,2.58
2022-08-07T21:55:30.220Z,2.45
2022-08-07T21:58:22.215Z,4.10
2022-08-07T22:01:19.904Z,4.05
2022-08-07T22:04:09.348Z,3.40
2022-08-07T22:07:00.662Z,3.63
2022-08-07T22:09:38.074Z,3.50
2022-08-07T22:12:32.556Z,4.57
2022-08-07T22:16:44.088Z,4.15
2022-08-07T22:18:20.653Z,4.55
2022-08-07T22:21:21.641Z,5.13
2022-08-07T22:24:15.777Z,6.30
2022-08-07T22:26:49.845Z,4.28
2022-08-07T22:29:47.473Z,4.40
2022-08-07T22:32:42.276Z,3.60
2022-08-07T22:35:11.804Z,4.32
2022-08-07T22:38:10.297Z,6.05
2022-08-07T22:41:03.496Z,5.97
2022-08-07T22:43:56.395Z,6.18
2022-08-07T22:47:03.378Z,7.82
2022-08-07T22:50:07.858Z,5.32
2022-08-07T22:52:59.804Z,3.80
2022-08-07T22:55:59.568Z,3.80
2022-08-07T22:59:00.672Z,3.80
2022-08-07T23:01:49.459Z,8.00
2022-08-07T23:04:32.746Z,4.10
2022-08-07T23:07:40.265Z,4.60
2022-08-07T23:10:46.987Z,4.80
2022-08-07T23:14:09.018Z,5.13
2022-08-07T23:16:54.899Z,4.55
2022-08-07T23:20:14.946Z,4.05
2022-08-07T23:24:05.086Z,3.88
2022-08-07T23:26:23.496Z,4.32
2022-08-07T23:30:35.908Z,5.10
2022-08-07T23:34:20.916Z,10.85
2022-08-07T23:36:30.326Z,14.52
2022-08-07T23:39:42.991Z,15.60
2022-08-07T23:42:30.459Z,6.95
2022-08-07T23:45:43.543Z,5.85
2022-08-07T23:48:42.073Z,7.18
2022-08-07T23:53:01.445Z,6.63
2022-08-07T23:54:54.446Z,5.90
2022-08-07T23:57:42.508Z,5.90
